Time;durP1;ratioP1;P1;durP2;ratioP2;P2;SDS_P1;SDS_P2;PMS_P1;PMS_P2;Temp;Humidity;BMP_temperature;BMP_pressure;BME280_temperature;BME280_humidity;BME280_pressure;Samples;Min_cycle;Max_cycle;Signal;HPM_P1;HPM_P2
2023/04/21 00:00:46;;;;;;;6.25;3.10;;;;;;;;;;5023944;28;20030;-74
2023/04/21 00:03:11;;;;;;;8.13;3.35;;;;;;;;;;5022495;28;20272;-74
2023/04/21 00:05:41;;;;;;;5.13;2.92;;;;;;;;;;5023730;28;20329;-74
2023/04/21 00:08:07;;;;;;;8.50;3.10;;;;;;;;;;5022428;28;20029;-73
2023/04/21 00:10:32;;;;;;;6.47;3.30;;;;;;;;;;5024107;28;20017;-73
2023/04/21 00:12:57;;;;;;;7.20;3.05;;;;;;;;;;5022725;28;20096;-73
2023/04/21 00:15:23;;;;;;;7.47;3.28;;;;;;;;;;5022807;28;20025;-73
2023/04/21 00:17:48;;;;;;;9.40;3.42;;;;;;;;;;5022861;28;20056;-73
2023/04/21 00:20:14;;;;;;;6.75;3.25;;;;;;;;;;5022937;28;20085;-73
2023/04/21 00:22:39;;;;;;;7.35;3.45;;;;;;;;;;5023208;28;20286;-73
2023/04/21 00:25:05;;;;;;;6.20;3.30;;;;;;;;;;5023717;28;20093;-73
2023/04/21 00:27:31;;;;;;;5.57;3.10;;;;;;;;;;5023184;28;20021;-75
2023/04/21 00:29:59;;;;;;;6.00;3.05;;;;;;;;;;5023107;28;20213;-73
2023/04/21 00:32:24;;;;;;;6.55;2.95;;;;;;;;;;5023379;28;20026;-73
2023/04/21 00:34:50;;;;;;;5.22;2.90;;;;;;;;;;5023561;28;20217;-73
2023/04/21 00:37:15;;;;;;;6.18;3.08;;;;;;;;;;5023013;28;20026;-73
2023/04/21 00:39:41;;;;;;;4.85;3.08;;;;;;;;;;5023500;28;20091;-73
2023/04/21 00:42:06;;;;;;;8.07;2.95;;;;;;;;;;5023359;28;20439;-75
2023/04/21 00:44:32;;;;;;;4.32;3.10;;;;;;;;;;5023280;28;20025;-72
2023/04/21 00:47:00;;;;;;;8.20;2.78;;;;;;;;;;5022973;28;20097;-74
2023/04/21 00:49:26;;;;;;;5.55;3.10;;;;;;;;;;5022896;28;20030;-74
2023/04/21 00:51:52;;;;;;;5.95;3.00;;;;;;;;;;5022855;28;20041;-75
2023/04/21 00:54:18;;;;;;;6.38;3.00;;;;;;;;;;5023157;28;20044;-73
2023/04/21 00:56:43;;;;;;;5.82;3.00;;;;;;;;;;5022927;28;20033;-73
2023/04/21 00:59:09;;;;;;;6.60;3.20;;;;;;;;;;5022852;28;20045;-73
2023/04/21 01:01:35;;;;;;;6.63;3.50;;;;;;;;;;5005519;28;20030;-75
2023/04/21 01:04:02;;;;;;;5.97;3.05;;;;;;;;;;5022942;28;20029;-75
2023/04/21 01:06:32;;;;;;;9.50;3.25;;;;;;;;;;5021985;28;20333;-72
2023/04/21 01:09:02;;;;;;;6.95;3.42;;;;;;;;;;5022759;28;20052;-73
2023/04/21 01:11:27;;;;;;;6.53;3.28;;;;;;;;;;5021757;28;20029;-73
2023/04/21 01:13:53;;;;;;;6.28;3.60;;;;;;;;;;5019918;28;20079;-75
2023/04/21 01:16:20;;;;;;;6.20;3.28;;;;;;;;;;5022241;28;20072;-74
2023/04/21 01:18:45;;;;;;;6.40;3.45;;;;;;;;;;5021577;28;20079;-73
2023/04/21 01:21:11;;;;;;;5.00;3.60;;;;;;;;;;5021646;28;20256;-74
2023/04/21 01:23:38;;;;;;;6.05;3.42;;;;;;;;;;5021234;28;20037;-74
2023/04/21 01:26:05;;;;;;;5.80;3.47;;;;;;;;;;5021359;28;20036;-74
2023/04/21 01:28:30;;;;;;;6.45;3.97;;;;;;;;;;5021071;28;20032;-74
2023/04/21 01:30:55;;;;;;;6.95;3.60;;;;;;;;;;5021326;28;20214;-73
2023/04/21 01:33:21;;;;;;;6.75;3.80;;;;;;;;;;5020749;28;20056;-74
2023/04/21 01:35:47;;;;;;;7.03;3.97;;;;;;;;;;5021178;28;20540;-73
2023/04/21 01:38:13;;;;;;;5.63;3.83;;;;;;;;;;5021095;28;20036;-73
2023/04/21 01:40:40;;;;;;;5.65;3.38;;;;;;;;;;5020411;28;20013;-73
2023/04/21 01:43:06;;;;;;;5.97;3.65;;;;;;;;;;5020921;28;20097;-73
2023/04/21 01:45:31;;;;;;;7.28;3.65;;;;;;;;;;5020550;28;20084;-75
2023/04/21 01:47:57;;;;;;;7.78;3.92;;;;;;;;;;5021548;28;20077;-73
2023/04/21 01:50:22;;;;;;;6.15;4.22;;;;;;;;;;5022088;28;20030;-73
2023/04/21 01:52:48;;;;;;;6.78;3.80;;;;;;;;;;5021863;28;20033;-73
2023/04/21 01:55:13;;;;;;;9.98;3.80;;;;;;;;;;5022022;28;20028;-73
2023/04/21 01:57:39;;;;;;;7.90;3.97;;;;;;;;;;5021776;28;20069;-73
2023/04/21 02:00:06;;;;;;;5.43;3.90;;;;;;;;;;5021838;28;20029;-73
2023/04/21 02:02:34;;;;;;;9.90;3.80;;;;;;;;;;5021872;28;20209;-72
2023/04/21 02:04:59;;;;;;;8.30;3.85;;;;;;;;;;5021931;28;20041;-73
2023/04/21 02:07:25;;;;;;;9.82;4.00;;;;;;;;;;5021498;28;20029;-74
2023/04/21 02:09:50;;;;;;;6.68;4.00;;;;;;;;;;5020781;28;20325;-74
2023/04/21 02:12:15;;;;;;;7.80;4.05;;;;;;;;;;5021353;28;20030;-73
2023/04/21 02:14:41;;;;;;;6.45;4.22;;;;;;;;;;5021671;28;20029;-73
2023/04/21 02:17:06;;;;;;;7.47;4.68;;;;;;;;;;5021517;28;20129;-74
2023/04/21 02:19:32;;;;;;;7.30;4.28;;;;;;;;;;5021464;28;20260;-74
2023/04/21 02:21:57;;;;;;;11.38;4.70;;;;;;;;;;5018860;28;20045;-73
2023/04/21 02:24:23;;;;;;;8.50;4.80;;;;;;;;;;5020715;28;20076;-73
2023/04/21 02:26:48;;;;;;;10.65;4.97;;;;;;;;;;5020721;28;20048;-75
2023/04/21 02:29:13;;;;;;;7.38;4.85;;;;;;;;;;5019373;28;20057;-74
2023/04/21 02:31:40;;;;;;;8.20;4.65;;;;;;;;;;5020694;28;20041;-73
2023/04/21 02:34:05;;;;;;;8.35;5.10;;;;;;;;;;5020877;28;20309;-74
2023/04/21 02:36:31;;;;;;;6.65;4.90;;;;;;;;;;5021226;28;20026;-73
2023/04/21 02:38:56;;;;;;;11.75;5.50;;;;;;;;;;5021325;28;20018;-73
2023/04/21 02:41:22;;;;;;;8.38;5.20;;;;;;;;;;5021174;28;20328;-73
2023/04/21 02:43:47;;;;;;;10.30;4.57;;;;;;;;;;5021138;28;20032;-73
2023/04/21 02:46:13;;;;;;;11.73;5.43;;;;;;;;;;5021231;28;20106;-72
2023/04/21 02:48:38;;;;;;;8.93;4.80;;;;;;;;;;5020806;28;20105;-74
2023/04/21 02:51:04;;;;;;;9.35;5.20;;;;;;;;;;5020732;28;20037;-74
2023/04/21 02:53:29;;;;;;;9.98;5.10;;;;;;;;;;5002240;28;20034;-73
2023/04/21 02:55:55;;;;;;;8.07;4.70;;;;;;;;;;5020079;28;20109;-73
2023/04/21 02:58:21;;;;;;;9.40;4.82;;;;;;;;;;5019881;28;20237;-74
2023/04/21 03:00:46;;;;;;;8.73;5.00;;;;;;;;;;5019540;28;20029;-74
2023/04/21 03:03:12;;;;;;;7.15;4.53;;;;;;;;;;5019467;28;20038;-72
2023/04/21 03:05:37;;;;;;;6.63;4.28;;;;;;;;;;5020722;28;20033;-73
2023/04/21 03:08:02;;;;;;;7.60;4.80;;;;;;;;;;5020858;28;20037;-73
2023/04/21 03:10:28;;;;;;;9.85;4.40;;;;;;;;;;5020929;28;20084;-74
2023/04/21 03:12:55;;;;;;;14.95;5.15;;;;;;;;;;5020989;28;20029;-74
2023/04/21 03:15:21;;;;;;;10.27;4.68;;;;;;;;;;5003386;28;20233;-73
2023/04/21 03:17:47;;;;;;;9.20;4.70;;;;;;;;;;5008685;28;20101;-73
2023/04/21 03:20:12;;;;;;;7.60;4.95;;;;;;;;;;5001130;28;20206;-73
2023/04/21 03:22:38;;;;;;;7.72;4.97;;;;;;;;;;5003144;28;20030;-75
2023/04/21 03:25:04;;;;;;;8.25;4.80;;;;;;;;;;5004761;28;20038;-73
2023/04/21 03:27:30;;;;;;;6.93;4.47;;;;;;;;;;5004391;28;20026;-75
2023/04/21 03:29:55;;;;;;;8.10;4.65;;;;;;;;;;5004196;28;20097;-74
2023/04/21 03:32:21;;;;;;;8.60;4.80;;;;;;;;;;5003525;28;20037;-74
2023/04/21 03:34:46;;;;;;;10.27;4.85;;;;;;;;;;5004057;28;20057;-73
2023/04/21 03:37:11;;;;;;;7.93;4.75;;;;;;;;;;5004228;28;20035;-72
2023/04/21 03:39:39;;;;;;;7.10;4.72;;;;;;;;;;5004620;28;20022;-73
2023/04/21 03:42:05;;;;;;;9.35;4.95;;;;;;;;;;5004902;28;20125;-73
2023/04/21 03:44:31;;;;;;;8.88;4.43;;;;;;;;;;5004739;28;20203;-73
2023/04/21 03:46:56;;;;;;;8.05;4.75;;;;;;;;;;5004734;28;20034;-74
2023/04/21 03:49:22;;;;;;;11.23;4.63;;;;;;;;;;5004755;28;20398;-73
2023/04/21 03:51:47;;;;;;;9.35;5.05;;;;;;;;;;5003649;28;20034;-74
2023/04/21 03:54:13;;;;;;;7.47;4.75;;;;;;;;;;5003026;28;20041;-74
2023/04/21 03:56:38;;;;;;;8.63;4.70;;;;;;;;;;5003422;28;20377;-73
2023/04/21 03:59:05;;;;;;;7.97;4.95;;;;;;;;;;5002630;28;20065;-74
2023/04/21 04:01:30;;;;;;;7.32;4.70;;;;;;;;;;5003908;28;20080;-74
2023/04/21 04:03:56;;;;;;;6.97;4.55;;;;;;;;;;5004433;28;20042;-73
2023/04/21 04:06:21;;;;;;;9.93;4.80;;;;;;;;;;5004096;28;20032;-74
2023/04/21 04:08:47;;;;;;;6.80;4.60;;;;;;;;;;5004386;28;20348;-73
2023/04/21 04:11:12;;;;;;;7.65;4.57;;;;;;;;;;5003980;28;20030;-73
2023/04/21 04:13:37;;;;;;;7.63;4.55;;;;;;;;;;5004338;28;20105;-73
2023/04/21 04:16:03;;;;;;;7.55;4.50;;;;;;;;;;5004153;28;20033;-72
2023/04/21 04:18:28;;;;;;;6.18;4.50;;;;;;;;;;5003740;28;20073;-74
2023/04/21 04:20:54;;;;;;;9.63;4.65;;;;;;;;;;5003404;28;20030;-74
2023/04/21 04:23:20;;;;;;;9.05;4.38;;;;;;;;;;5004015;28;20052;-73
2023/04/21 04:25:46;;;;;;;7.85;4.32;;;;;;;;;;5003208;28;20030;-74
2023/04/21 04:28:12;;;;;;;9.85;4.75;;;;;;;;;;5002426;28;20030;-73
2023/04/21 04:30:37;;;;;;;8.55;4.38;;;;;;;;;;5001766;28;20254;-73
2023/04/21 04:33:03;;;;;;;8.23;4.30;;;;;;;;;;5001903;28;20058;-73
2023/04/21 04:35:29;;;;;;;7.03;4.40;;;;;;;;;;5003230;28;20294;-73
2023/04/21 04:37:55;;;;;;;7.45;4.45;;;;;;;;;;5003369;28;20041;-74
2023/04/21 04:40:21;;;;;;;7.93;4.50;;;;;;;;;;5003678;28;20085;-74
2023/04/21 04:42:47;;;;;;;9.32;4.30;;;;;;;;;;5003760;28;20309;-74
2023/04/21 04:45:15;;;;;;;6.53;4.10;;;;;;;;;;5003814;28;20214;-74
2023/04/21 04:47:41;;;;;;;12.18;4.53;;;;;;;;;;5003579;28;20447;-72
2023/04/21 04:50:07;;;;;;;7.18;4.50;;;;;;;;;;4985600;28;20373;-73
2023/04/21 04:52:32;;;;;;;8.27;4.30;;;;;;;;;;5003065;28;20034;-72
2023/04/21 04:54:57;;;;;;;6.30;4.22;;;;;;;;;;5003564;28;20026;-75
2023/04/21 04:57:23;;;;;;;8.73;4.70;;;;;;;;;;5003102;28;20030;-74
2023/04/21 04:59:48;;;;;;;10.30;4.72;;;;;;;;;;5003194;28;20072;-74
2023/04/21 05:02:13;;;;;;;7.35;4.30;;;;;;;;;;5002972;28;20026;-74
2023/04/21 05:04:39;;;;;;;6.80;4.20;;;;;;;;;;5002013;28;20310;-74
2023/04/21 05:07:06;;;;;;;8.15;4.38;;;;;;;;;;5002876;28;20057;-72
2023/04/21 05:09:32;;;;;;;7.72;4.32;;;;;;;;;;5002041;28;20337;-74
2023/04/21 05:11:58;;;;;;;7.72;4.25;;;;;;;;;;5003078;28;20060;-74
2023/04/21 05:14:23;;;;;;;6.63;4.20;;;;;;;;;;5002902;28;20026;-74
2023/04/21 05:16:49;;;;;;;4.95;3.78;;;;;;;;;;5002706;28;20034;-73
2023/04/21 05:19:14;;;;;;;7.85;4.50;;;;;;;;;;5003056;28;20064;-73
2023/04/21 05:21:40;;;;;;;8.73;3.67;;;;;;;;;;5001674;28;20042;-73
2023/04/21 05:24:05;;;;;;;8.93;4.35;;;;;;;;;;5002811;28;20069;-73
2023/04/21 05:26:30;;;;;;;9.35;4.20;;;;;;;;;;5002478;28;20030;-74
2023/04/21 05:28:57;;;;;;;9.50;4.50;;;;;;;;;;5002644;28;20030;-73
2023/04/21 05:31:25;;;;;;;8.20;3.80;;;;;;;;;;5002821;28;20143;-75
2023/04/21 05:33:50;;;;;;;10.45;4.72;;;;;;;;;;5001367;28;20026;-74
2023/04/21 05:36:16;;;;;;;7.35;4.13;;;;;;;;;;5002090;28;20030;-74
2023/04/21 05:38:41;;;;;;;6.80;4.10;;;;;;;;;;5001774;28;20225;-75
2023/04/21 05:41:07;;;;;;;6.45;3.60;;;;;;;;;;5001747;28;20222;-74
2023/04/21 05:43:33;;;;;;;6.35;4.10;;;;;;;;;;5001463;28;20093;-74
2023/04/21 05:46:02;;;;;;;9.85;4.47;;;;;;;;;;4985202;28;20326;-72
2023/04/21 05:48:27;;;;;;;6.82;4.00;;;;;;;;;;5002491;28;20034;-73
2023/04/21 05:50:54;;;;;;;8.05;3.88;;;;;;;;;;5002432;28;20036;-72
2023/04/21 05:53:19;;;;;;;6.47;4.03;;;;;;;;;;5002422;28;20101;-74
2023/04/21 05:55:47;;;;;;;8.90;4.05;;;;;;;;;;5002582;28;20122;-74
2023/04/21 05:58:13;;;;;;;10.20;3.80;;;;;;;;;;5002126;28;20050;-74
2023/04/21 06:00:38;;;;;;;8.82;4.28;;;;;;;;;;5001327;28;20096;-73
2023/04/21 06:03:03;;;;;;;9.05;3.72;;;;;;;;;;5000789;28;20026;-74
2023/04/21 06:05:29;;;;;;;8.18;4.07;;;;;;;;;;4983262;28;20057;-74
2023/04/21 06:07:54;;;;;;;8.02;4.13;;;;;;;;;;5001442;28;20129;-73
2023/04/21 06:10:20;;;;;;;7.75;4.10;;;;;;;;;;5000756;28;20058;-73
2023/04/21 06:12:46;;;;;;;8.68;4.43;;;;;;;;;;5000520;28;20048;-72
2023/04/21 06:15:11;;;;;;;7.35;3.67;;;;;;;;;;4983104;28;20042;-74
2023/04/21 06:17:37;;;;;;;9.80;3.95;;;;;;;;;;5001365;28;20236;-74
2023/04/21 06:20:03;;;;;;;8.52;3.70;;;;;;;;;;5001844;28;20033;-73
2023/04/21 06:22:28;;;;;;;9.50;4.00;;;;;;;;;;5001854;28;20054;-73
2023/04/21 06:24:53;;;;;;;8.20;3.95;;;;;;;;;;5000641;28;20034;-73
2023/04/21 06:27:19;;;;;;;7.43;3.92;;;;;;;;;;5001172;28;20034;-74
2023/04/21 06:29:44;;;;;;;9.00;3.88;;;;;;;;;;5001447;28;20239;-73
2023/04/21 06:32:11;;;;;;;6.28;3.22;;;;;;;;;;5001112;28;20094;-73
2023/04/21 06:34:37;;;;;;;9.25;3.65;;;;;;;;;;5001695;28;20042;-75
2023/04/21 06:37:02;;;;;;;11.65;3.55;;;;;;;;;;5001517;28;20034;-73
2023/04/21 06:39:28;;;;;;;7.28;3.45;;;;;;;;;;5001582;28;20037;-73
2023/04/21 06:41:53;;;;;;;7.78;3.20;;;;;;;;;;5009073;28;20121;-73
2023/04/21 06:44:19;;;;;;;12.63;3.55;;;;;;;;;;5021148;28;20026;-73
2023/04/21 06:46:45;;;;;;;8.75;3.45;;;;;;;;;;5021258;28;20045;-72
2023/04/21 06:49:11;;;;;;;10.55;3.85;;;;;;;;;;5021068;28;20032;-72
2023/04/21 06:51:37;;;;;;;6.22;3.45;;;;;;;;;;5020728;28;20030;-74
2023/04/21 06:54:02;;;;;;;6.55;3.20;;;;;;;;;;5003445;28;20030;-73
2023/04/21 06:56:28;;;;;;;10.43;4.22;;;;;;;;;;5020785;28;20038;-73
2023/04/21 06:58:54;;;;;;;7.25;3.50;;;;;;;;;;5020315;28;20266;-73
2023/04/21 07:01:20;;;;;;;11.43;3.50;;;;;;;;;;5020935;28;20022;-74
2023/04/21 07:03:45;;;;;;;8.80;3.80;;;;;;;;;;5020431;28;20087;-73
2023/04/21 07:06:11;;;;;;;8.02;3.90;;;;;;;;;;5020775;28;20030;-71
2023/04/21 07:08:37;;;;;;;9.27;3.92;;;;;;;;;;5019738;28;20033;-73
2023/04/21 07:11:02;;;;;;;8.48;3.88;;;;;;;;;;5020757;28;20033;-73
2023/04/21 07:13:28;;;;;;;9.35;3.25;;;;;;;;;;5020869;28;20037;-72
2023/04/21 07:15:53;;;;;;;9.27;3.53;;;;;;;;;;5020232;28;20029;-73
2023/04/21 07:18:19;;;;;;;9.40;3.38;;;;;;;;;;5020844;28;20078;-73
2023/04/21 07:20:45;;;;;;;7.47;3.63;;;;;;;;;;5020700;28;20029;-72
2023/04/21 07:23:10;;;;;;;8.52;3.63;;;;;;;;;;5020740;28;20051;-72
2023/04/21 07:25:36;;;;;;;5.45;3.15;;;;;;;;;;5020304;28;20041;-72
2023/04/21 07:28:02;;;;;;;11.00;3.75;;;;;;;;;;5020665;28;20022;-72
2023/04/21 07:30:28;;;;;;;8.80;4.03;;;;;;;;;;5020653;28;20028;-75
2023/04/21 07:32:54;;;;;;;8.95;3.65;;;;;;;;;;5002143;28;20038;-74
2023/04/21 07:35:20;;;;;;;7.93;3.47;;;;;;;;;;5020338;28;20198;-74
2023/04/21 07:37:45;;;;;;;10.00;3.65;;;;;;;;;;5020377;28;20389;-73
2023/04/21 07:40:11;;;;;;;9.05;3.28;;;;;;;;;;5020640;28;20014;-73
2023/04/21 07:42:37;;;;;;;10.65;3.33;;;;;;;;;;5019647;28;20033;-72
2023/04/21 07:45:03;;;;;;;7.30;3.55;;;;;;;;;;5020512;28;20041;-73
2023/04/21 07:47:29;;;;;;;11.70;3.53;;;;;;;;;;5020223;28;20152;-73
2023/04/21 07:49:54;;;;;;;9.32;3.70;;;;;;;;;;5020386;28;20464;-73
2023/04/21 07:52:20;;;;;;;10.65;3.90;;;;;;;;;;5020516;28;20057;-73
2023/04/21 07:54:46;;;;;;;7.07;3.60;;;;;;;;;;5020338;28;20033;-73
2023/04/21 07:57:11;;;;;;;10.00;3.72;;;;;;;;;;5020476;28;20034;-76
2023/04/21 07:59:36;;;;;;;11.35;3.90;;;;;;;;;;5020421;28;20097;-72
2023/04/21 08:02:02;;;;;;;9.57;3.88;;;;;;;;;;5019506;28;20264;-72
2023/04/21 08:04:27;;;;;;;8.57;3.40;;;;;;;;;;5019302;28;20123;-73
2023/04/21 08:06:53;;;;;;;6.47;3.13;;;;;;;;;;5020896;28;20045;-73
2023/04/21 08:09:18;;;;;;;7.20;3.30;;;;;;;;;;5023936;28;20045;-73
2023/04/21 08:11:44;;;;;;;9.38;3.70;;;;;;;;;;5023443;28;20034;-73
2023/04/21 08:14:10;;;;;;;9.48;4.00;;;;;;;;;;5023123;28;20274;-73
2023/04/21 08:16:37;;;;;;;10.23;3.85;;;;;;;;;;5022192;28;20029;-72
2023/04/21 08:19:03;;;;;;;8.77;3.92;;;;;;;;;;5022782;28;20396;-72
2023/04/21 08:21:29;;;;;;;10.63;3.58;;;;;;;;;;5023041;28;20034;-72
2023/04/21 08:23:54;;;;;;;8.35;3.88;;;;;;;;;;5022820;28;20050;-73
2023/04/21 08:26:24;;;;;;;12.50;4.03;;;;;;;;;;5020603;28;20084;-73
2023/04/21 08:28:49;;;;;;;9.10;3.78;;;;;;;;;;5023740;28;20033;-72
2023/04/21 08:31:15;;;;;;;9.73;3.38;;;;;;;;;;5023448;28;20104;-73
2023/04/21 08:33:40;;;;;;;10.18;3.80;;;;;;;;;;5023656;28;20022;-73
2023/04/21 08:36:06;;;;;;;10.45;3.90;;;;;;;;;;5005863;28;20045;-72
2023/04/21 08:38:31;;;;;;;9.35;4.00;;;;;;;;;;5018398;28;20025;-74
2023/04/21 08:40:58;;;;;;;9.15;3.75;;;;;;;;;;5016525;28;20026;-74
2023/04/21 08:43:27;;;;;;;8.73;3.72;;;;;;;;;;5018875;28;20037;-76
2023/04/21 08:45:54;;;;;;;6.15;3.20;;;;;;;;;;5022013;28;20030;-73
2023/04/21 08:48:22;;;;;;;7.78;3.60;;;;;;;;;;5004796;28;20080;-78
2023/04/21 08:50:49;;;;;;;9.63;3.78;;;;;;;;;;5016787;28;20022;-73
2023/04/21 08:53:16;;;;;;;29.42;4.25;;;;;;;;;;5013470;28;20041;-82
2023/04/21 08:55:42;;;;;;;6.45;3.63;;;;;;;;;;4997622;28;20122;-73
2023/04/21 08:58:08;;;;;;;9.00;3.85;;;;;;;;;;5012834;28;20121;-72
2023/04/21 09:00:38;;;;;;;7.22;3.63;;;;;;;;;;5011382;28;20026;-73
2023/04/21 09:03:06;;;;;;;12.43;4.05;;;;;;;;;;5020935;28;20052;-71
2023/04/21 09:05:33;;;;;;;12.25;3.90;;;;;;;;;;5019060;28;20088;-72
2023/04/21 09:08:13;;;;;;;8.05;3.75;;;;;;;;;;5019750;28;20036;-72
2023/04/21 09:10:49;;;;;;;9.75;3.90;;;;;;;;;;5021822;28;20120;-73
2023/04/21 09:13:15;;;;;;;10.77;3.63;;;;;;;;;;5016375;28;20073;-72
2023/04/21 09:15:42;;;;;;;8.75;3.58;;;;;;;;;;5017456;28;20093;-73
2023/04/21 09:18:16;;;;;;;8.48;3.40;;;;;;;;;;5001964;28;20025;-73
2023/04/21 09:20:43;;;;;;;6.20;3.60;;;;;;;;;;5021486;28;20397;-74
2023/04/21 09:23:09;;;;;;;10.07;3.40;;;;;;;;;;5018235;28;20030;-75
2023/04/21 09:25:37;;;;;;;7.25;3.13;;;;;;;;;;5015757;28;20018;-72
2023/04/21 09:28:06;;;;;;;8.25;3.55;;;;;;;;;;5018067;28;20037;-73
2023/04/21 09:30:35;;;;;;;8.65;3.60;;;;;;;;;;5016613;28;20017;-73
2023/04/21 09:33:00;;;;;;;7.70;3.60;;;;;;;;;;5013090;28;20025;-73
2023/04/21 09:35:32;;;;;;;8.90;3.60;;;;;;;;;;5017260;28;20029;-75
2023/04/21 09:38:00;;;;;;;9.05;3.47;;;;;;;;;;5019842;28;20061;-73
2023/04/21 09:40:25;;;;;;;8.15;3.17;;;;;;;;;;5016286;28;20156;-75
2023/04/21 09:42:50;;;;;;;9.25;3.60;;;;;;;;;;5014716;28;20059;-72
2023/04/21 09:45:16;;;;;;;7.68;3.33;;;;;;;;;;5015860;28;20026;-74
2023/04/21 09:47:42;;;;;;;12.35;3.28;;;;;;;;;;5017539;28;20041;-72
2023/04/21 09:50:10;;;;;;;8.50;3.33;;;;;;;;;;5016851;28;20035;-75
2023/04/21 09:52:37;;;;;;;8.98;3.33;;;;;;;;;;5016525;28;20037;-73
2023/04/21 09:55:04;;;;;;;8.52;3.50;;;;;;;;;;5012847;28;20034;-72
2023/04/21 09:57:34;;;;;;;6.45;3.58;;;;;;;;;;5016233;28;20045;-73
2023/04/21 10:00:04;;;;;;;11.27;3.53;;;;;;;;;;5020042;28;20032;-75
2023/04/21 10:02:30;;;;;;;5.90;3.60;;;;;;;;;;5019288;28;20037;-72
2023/04/21 10:04:56;;;;;;;6.93;3.38;;;;;;;;;;5019970;28;20018;-73
2023/04/21 10:07:22;;;;;;;8.68;3.55;;;;;;;;;;5016052;28;20225;-72
2023/04/21 10:09:55;;;;;;;8.85;3.63;;;;;;;;;;5021331;28;20034;-73
2023/04/21 10:12:21;;;;;;;7.30;3.25;;;;;;;;;;5021880;28;20052;-72
2023/04/21 10:14:54;;;;;;;7.47;3.20;;;;;;;;;;5021813;28;20034;-72
2023/04/21 10:17:25;;;;;;;7.95;3.20;;;;;;;;;;5021658;28;20045;-74
2023/04/21 10:19:56;;;;;;;8.80;3.30;;;;;;;;;;5021590;28;20026;-74
2023/04/21 10:22:27;;;;;;;8.35;3.20;;;;;;;;;;5021079;28;20042;-73
2023/04/21 10:24:55;;;;;;;8.52;3.22;;;;;;;;;;5002954;28;20093;-73
2023/04/21 10:27:49;;;;;;;9.50;3.42;;;;;;;;;;5001414;28;20085;-73
2023/04/21 10:30:18;;;;;;;6.65;3.00;;;;;;;;;;4983457;28;20105;-73
2023/04/21 10:32:45;;;;;;;9.32;3.60;;;;;;;;;;5001818;28;20366;-74
2023/04/21 10:35:13;;;;;;;7.90;3.25;;;;;;;;;;5001781;28;20026;-74
2023/04/21 10:37:41;;;;;;;6.80;3.20;;;;;;;;;;5001778;28;20041;-73
2023/04/21 10:40:26;;;;;;;7.90;3.28;;;;;;;;;;5001625;28;20030;-76
2023/04/21 10:42:52;;;;;;;5.72;2.90;;;;;;;;;;5001477;28;20060;-74
2023/04/21 10:45:17;;;;;;;8.50;3.42;;;;;;;;;;5001545;28;20022;-74
2023/04/21 10:47:48;;;;;;;5.45;3.00;;;;;;;;;;5001202;28;20345;-72
2023/04/21 10:50:27;;;;;;;7.55;3.13;;;;;;;;;;5000880;28;20077;-72
2023/04/21 10:52:54;;;;;;;7.63;3.25;;;;;;;;;;5000421;28;20158;-73
2023/04/21 10:55:21;;;;;;;5.40;2.88;;;;;;;;;;5000493;28;20366;-77
2023/04/21 10:57:47;;;;;;;5.57;2.90;;;;;;;;;;4983404;28;20054;-73
2023/04/21 11:00:20;;;;;;;5.88;3.03;;;;;;;;;;5000023;28;20042;-75
2023/04/21 11:03:11;;;;;;;5.82;2.85;;;;;;;;;;5001389;28;20046;-74
2023/04/21 11:05:39;;;;;;;8.88;2.85;;;;;;;;;;4997292;28;20266;-77
2023/04/21 11:08:10;;;;;;;6.88;2.80;;;;;;;;;;5001361;28;20023;-72
2023/04/21 11:11:01;;;;;;;;;;;;;;;;;;5001743;28;20110;-72
2023/04/21 11:13:33;;;;;;;7.88;2.67;;;;;;;;;;4998319;28;20229;-74
2023/04/21 11:16:07;;;;;;;8.30;3.03;;;;;;;;;;5001298;28;20038;-75
2023/04/21 11:18:36;;;;;;;6.43;2.78;;;;;;;;;;5000880;28;20033;-74
2023/04/21 11:21:09;;;;;;;6.20;2.60;;;;;;;;;;5000584;28;20035;-75
2023/04/21 11:23:35;;;;;;;6.88;3.10;;;;;;;;;;4999045;28;20026;-73
2023/04/21 11:26:00;;;;;;;6.07;2.35;;;;;;;;;;4999869;28;20057;-73
2023/04/21 11:28:26;;;;;;;6.50;2.70;;;;;;;;;;4999969;28;20043;-73
2023/04/21 11:30:51;;;;;;;5.90;2.78;;;;;;;;;;4999436;28;20110;-74
2023/04/21 11:33:16;;;;;;;8.43;2.53;;;;;;;;;;4999714;28;20056;-74
2023/04/21 11:35:42;;;;;;;4.70;2.63;;;;;;;;;;5000610;28;20088;-73
2023/04/21 11:38:07;;;;;;;4.82;2.50;;;;;;;;;;5001031;28;20030;-76
2023/04/21 11:40:50;;;;;;;7.57;2.50;;;;;;;;;;5001013;28;20077;-73
2023/04/21 11:43:15;;;;;;;8.82;2.90;;;;;;;;;;5003479;28;20053;-86
2023/04/21 11:45:41;;;;;;;7.93;2.50;;;;;;;;;;5004994;28;20026;-79
2023/04/21 11:48:16;;;;;;;8.40;2.50;;;;;;;;;;4986706;28;20037;-73
2023/04/21 11:50:49;;;;;;;8.73;2.60;;;;;;;;;;5004601;28;20376;-73
2023/04/21 11:53:15;;;;;;;5.95;2.40;;;;;;;;;;5004804;28;20092;-72
2023/04/21 11:55:46;;;;;;;5.97;2.67;;;;;;;;;;5004726;28;20238;-73
2023/04/21 11:58:15;;;;;;;6.97;2.60;;;;;;;;;;5004399;28;20043;-73
2023/04/21 12:00:44;;;;;;;4.32;2.35;;;;;;;;;;5004483;28;20023;-72
2023/04/21 12:03:11;;;;;;;9.43;2.40;;;;;;;;;;5004625;28;20027;-73
2023/04/21 12:05:39;;;;;;;7.78;2.95;;;;;;;;;;5004627;28;20072;-73
2023/04/21 12:08:05;;;;;;;13.10;2.78;;;;;;;;;;5004693;28;20129;-74
2023/04/21 12:10:31;;;;;;;5.93;2.50;;;;;;;;;;5004595;28;20030;-73
2023/04/21 12:12:56;;;;;;;8.65;3.00;;;;;;;;;;5004223;28;20058;-73
2023/04/21 12:15:22;;;;;;;4.93;2.50;;;;;;;;;;5003826;28;20081;-73
2023/04/21 12:17:52;;;;;;;6.70;2.67;;;;;;;;;;5004628;28;20094;-74
2023/04/21 12:20:19;;;;;;;;;;;;;;;;;;5004686;28;20041;-73
2023/04/21 12:22:45;;;;;;;11.40;3.25;;;;;;;;;;5003920;28;19910;-74
2023/04/21 12:25:11;;;;;;;7.25;2.85;;;;;;;;;;5004296;28;20041;-72
2023/04/21 12:27:39;;;;;;;11.38;3.08;;;;;;;;;;5004065;28;20038;-77
2023/04/21 12:30:05;;;;;;;6.28;2.42;;;;;;;;;;5003305;28;20066;-72
2023/04/21 12:32:31;;;;;;;4.88;2.65;;;;;;;;;;5002266;28;20022;-72
2023/04/21 12:34:56;;;;;;;6.85;2.83;;;;;;;;;;5002717;28;20341;-72
2023/04/21 12:37:22;;;;;;;6.07;2.60;;;;;;;;;;5002886;28;20223;-74
2023/04/21 12:39:47;;;;;;;8.82;2.90;;;;;;;;;;5002931;28;20076;-72
2023/04/21 12:42:12;;;;;;;10.30;2.53;;;;;;;;;;5022380;28;20348;-72
2023/04/21 12:44:38;;;;;;;9.98;3.10;;;;;;;;;;5023329;28;20081;-73
2023/04/21 12:47:04;;;;;;;8.90;2.65;;;;;;;;;;5023306;28;20046;-72
2023/04/21 12:49:30;;;;;;;8.82;2.50;;;;;;;;;;5023166;28;20460;-72
2023/04/21 12:51:55;;;;;;;6.43;2.67;;;;;;;;;;5022965;28;20033;-71
2023/04/21 12:54:20;;;;;;;7.40;2.55;;;;;;;;;;5022828;28;20261;-73
2023/04/21 12:56:46;;;;;;;5.20;2.35;;;;;;;;;;5023200;28;20034;-76
2023/04/21 12:59:12;;;;;;;10.82;2.80;;;;;;;;;;5023048;28;20053;-73
2023/04/21 13:01:39;;;;;;;6.72;2.60;;;;;;;;;;5023038;28;20322;-72
2023/04/21 13:04:04;;;;;;;6.78;2.67;;;;;;;;;;5022963;28;20321;-72
2023/04/21 13:06:32;;;;;;;10.13;2.90;;;;;;;;;;5022806;28;20106;-72
2023/04/21 13:08:57;;;;;;;7.78;2.83;;;;;;;;;;5022892;28;20029;-72
2023/04/21 13:11:23;;;;;;;7.78;2.55;;;;;;;;;;5022786;28;20034;-73
2023/04/21 13:13:48;;;;;;;11.73;2.60;;;;;;;;;;5023001;28;20030;-72
2023/04/21 13:16:14;;;;;;;6.85;2.75;;;;;;;;;;5021957;28;20037;-73
2023/04/21 13:18:45;;;;;;;6.43;2.35;;;;;;;;;;5022029;28;20034;-73
2023/04/21 13:21:10;;;;;;;8.23;2.58;;;;;;;;;;5022472;28;20026;-72
2023/04/21 13:23:35;;;;;;;7.00;2.90;;;;;;;;;;5022613;28;20048;-74
2023/04/21 13:26:01;;;;;;;13.13;2.53;;;;;;;;;;5021748;28;20084;-75
2023/04/21 13:28:26;;;;;;;7.93;2.50;;;;;;;;;;5022657;28;20030;-73
2023/04/21 13:30:52;;;;;;;7.13;2.60;;;;;;;;;;5022011;28;20034;-72
2023/04/21 13:33:19;;;;;;;8.32;2.63;;;;;;;;;;5021996;28;20040;-75
2023/04/21 13:35:44;;;;;;;5.40;2.38;;;;;;;;;;5022167;28;20213;-74
2023/04/21 13:38:10;;;;;;;10.13;2.40;;;;;;;;;;5021759;28;20375;-74
2023/04/21 13:40:36;;;;;;;10.68;3.03;;;;;;;;;;5021517;28;20042;-73
2023/04/21 13:43:01;;;;;;;9.07;2.63;;;;;;;;;;5021665;28;20080;-75
2023/04/21 13:45:27;;;;;;;8.55;2.47;;;;;;;;;;5021379;28;20076;-76
2023/04/21 13:47:52;;;;;;;12.75;3.10;;;;;;;;;;5021363;28;20037;-76
2023/04/21 13:50:18;;;;;;;12.85;2.75;;;;;;;;;;5021925;28;20184;-76
2023/04/21 13:52:43;;;;;;;7.97;2.88;;;;;;;;;;5013788;28;20113;-75
2023/04/21 13:55:10;;;;;;;7.75;2.80;;;;;;;;;;5010703;28;20099;-75
2023/04/21 13:57:36;;;;;;;8.52;3.17;;;;;;;;;;5010478;28;20092;-75
2023/04/21 14:00:04;;;;;;;10.68;2.95;;;;;;;;;;5009314;28;20401;-76
2023/04/21 14:02:30;;;;;;;10.13;2.80;;;;;;;;;;5009940;28;20087;-76
2023/04/21 14:04:56;;;;;;;8.45;2.90;;;;;;;;;;5009591;28;20112;-76
2023/04/21 14:07:21;;;;;;;8.93;2.80;;;;;;;;;;5010196;28;20029;-75
2023/04/21 14:09:49;;;;;;;10.70;3.17;;;;;;;;;;5010405;28;20018;-75
2023/04/21 14:12:14;;;;;;;6.88;2.92;;;;;;;;;;5010161;28;20054;-76
2023/04/21 14:14:40;;;;;;;8.00;2.80;;;;;;;;;;5010476;28;20061;-76
2023/04/21 14:17:06;;;;;;;9.57;3.15;;;;;;;;;;5010441;28;20665;-77
2023/04/21 14:19:31;;;;;;;8.57;2.90;;;;;;;;;;5008910;28;20034;-75
2023/04/21 14:21:57;;;;;;;11.95;3.65;;;;;;;;;;5009785;28;20088;-77
2023/04/21 14:24:22;;;;;;;6.88;2.97;;;;;;;;;;5010220;28;20021;-76
2023/04/21 14:26:48;;;;;;;10.52;3.30;;;;;;;;;;5010443;28;20407;-76
2023/04/21 14:29:16;;;;;;;7.18;3.13;;;;;;;;;;5010230;28;20501;-76
2023/04/21 14:31:41;;;;;;;8.23;3.30;;;;;;;;;;5009879;28;20084;-75
2023/04/21 14:34:07;;;;;;;9.82;3.13;;;;;;;;;;5009812;28;20030;-76
2023/04/21 14:36:32;;;;;;;6.35;2.80;;;;;;;;;;5009795;28;20030;-77